Time;durP1;ratioP1;P1;durP2;ratioP2;P2;SDS_P1;SDS_P2;PMS_P1;PMS_P2;Temp;Humidity;BMP_temperature;BMP_pressure;BME280_temperature;BME280_humidity;BME280_pressure;Samples;Min_cycle;Max_cycle;Signal;HPM_P1;HPM_P2
2021/08/17 00:02:13;;;;;;;24.27;12.57;;;20.50;97.00;;;;;;4335946;32;20159;-64
2021/08/17 00:04:40;;;;;;;22.85;11.07;;;20.50;97.60;;;;;;4361899;32;20067;-64
2021/08/17 00:07:06;;;;;;;25.05;11.93;;;20.50;99.30;;;;;;4348503;32;20085;-64
2021/08/17 00:09:32;;;;;;;22.83;12.57;;;20.70;98.50;;;;;;4348121;32;20095;-64
2021/08/17 00:11:58;;;;;;;25.83;11.63;;;20.80;98.40;;;;;;4361742;32;20472;-63
2021/08/17 00:14:25;;;;;;;23.45;11.68;;;20.70;98.20;;;;;;4348092;32;20082;-64
2021/08/17 00:16:51;;;;;;;26.20;12.02;;;20.60;98.90;;;;;;4362012;32;20452;-65
2021/08/17 00:19:17;;;;;;;22.13;11.52;;;20.60;99.90;;;;;;4335918;32;20086;-64
2021/08/17 00:21:43;;;;;;;21.30;11.10;;;20.50;99.90;;;;;;4348066;32;20093;-64
2021/08/17 00:24:09;;;;;;;22.20;11.07;;;20.50;99.90;;;;;;4335555;32;20441;-66
2021/08/17 00:26:35;;;;;;;23.67;11.55;;;20.50;99.90;;;;;;4347935;32;20092;-65
2021/08/17 00:29:02;;;;;;;25.90;10.82;;;20.50;99.90;;;;;;4348536;32;20152;-64
2021/08/17 00:31:28;;;;;;;19.52;9.88;;;20.50;99.90;;;;;;4361494;32;20066;-64
2021/08/17 00:33:54;;;;;;;28.40;12.05;;;20.50;99.90;;;;;;4347804;32;20084;-64
2021/08/17 00:36:20;;;;;;;22.48;11.65;;;20.50;99.90;;;;;;4347535;32;20543;-64
2021/08/17 00:38:46;;;;;;;19.65;11.12;;;20.40;99.90;;;;;;4360380;32;20509;-64
2021/08/17 00:41:13;;;;;;;22.90;11.50;;;20.30;99.90;;;;;;4347814;32;20539;-63
2021/08/17 00:43:39;;;;;;;21.40;10.88;;;20.40;99.90;;;;;;4347933;32;20087;-64
2021/08/17 00:46:06;;;;;;;20.75;10.50;;;20.30;99.90;;;;;;4347587;32;20143;-65
2021/08/17 00:48:36;;;;;;;21.10;11.02;;;20.40;99.90;;;;;;4335738;32;20050;-64
2021/08/17 00:51:04;;;;;;;22.37;11.98;;;20.50;99.90;;;;;;4348101;32;20157;-64
2021/08/17 00:53:31;;;;;;;22.90;12.13;;;20.50;99.90;;;;;;4335360;32;20456;-64
2021/08/17 00:55:57;;;;;;;20.25;10.30;;;20.50;99.90;;;;;;4347946;32;20092;-64
2021/08/17 00:58:24;;;;;;;24.10;11.25;;;20.40;99.90;;;;;;4335589;32;20090;-65
2021/08/17 01:00:50;;;;;;;20.48;10.82;;;20.40;99.90;;;;;;4347368;32;20101;-65
2021/08/17 01:03:17;;;;;;;22.05;12.20;;;20.40;99.90;;;;;;4347527;32;20065;-64
2021/08/17 01:05:43;;;;;;;24.17;12.80;;;20.20;99.90;;;;;;4347429;32;20134;-64
2021/08/17 01:08:10;;;;;;;26.95;12.15;;;20.20;99.90;;;;;;4347761;32;20177;-64
2021/08/17 01:10:38;;;;;;;24.77;12.13;;;20.10;99.90;;;;;;4335350;32;20070;-64
2021/08/17 01:13:04;;;;;;;23.85;12.77;;;19.90;99.90;;;;;;4335280;32;20079;-64
2021/08/17 01:15:31;;;;;;;23.73;11.80;;;19.90;99.90;;;;;;4347553;32;20097;-64
2021/08/17 01:17:57;;;;;;;21.65;11.35;;;19.90;99.90;;;;;;4347303;32;20157;-64
2021/08/17 01:20:25;;;;;;;24.00;12.63;;;19.90;99.90;;;;;;4347454;32;20079;-63
2021/08/17 01:22:51;;;;;;;22.75;12.05;;;19.90;99.90;;;;;;4347429;32;20079;-64
2021/08/17 01:25:18;;;;;;;29.02;12.82;;;19.60;99.90;;;;;;4361278;32;20082;-65
2021/08/17 01:27:45;;;;;;;25.42;12.93;;;19.60;99.90;;;;;;4361154;32;20078;-64
2021/08/17 01:30:13;;;;;;;28.23;12.37;;;19.50;99.90;;;;;;4335041;32;20166;-63
2021/08/17 01:32:39;;;;;;;27.15;12.23;;;19.60;99.90;;;;;;4335681;32;20082;-64
2021/08/17 01:35:06;;;;;;;23.00;12.02;;;19.60;99.90;;;;;;4347497;32;20078;-64
2021/08/17 01:37:32;;;;;;;21.80;11.75;;;19.50;99.90;;;;;;4337221;32;20107;-63
2021/08/17 01:40:03;;;;;;;24.17;11.75;;;19.40;99.90;;;;;;4364004;32;20086;-64
2021/08/17 01:42:30;;;;;;;20.88;10.85;;;19.40;99.90;;;;;;4339188;32;20082;-64
2021/08/17 01:45:00;;;;;;;21.55;11.82;;;19.50;99.90;;;;;;4338202;32;20074;-65
2021/08/17 01:47:30;;;;;;;21.08;10.52;;;19.50;99.90;;;;;;4338376;32;20488;-64
2021/08/17 01:49:56;;;;;;;23.02;10.57;;;19.50;99.90;;;;;;4350585;32;20140;-64
2021/08/17 01:52:22;;;;;;;23.00;11.98;;;19.50;99.90;;;;;;4350112;32;20082;-65
2021/08/17 01:54:48;;;;;;;24.10;12.37;;;19.50;99.90;;;;;;4337241;32;20082;-64
2021/08/17 01:57:14;;;;;;;25.70;12.95;;;19.60;99.90;;;;;;4350081;32;20160;-65
2021/08/17 01:59:41;;;;;;;31.25;12.65;;;19.70;99.90;;;;;;4349865;32;20156;-64
2021/08/17 02:02:08;;;;;;;25.05;11.88;;;19.80;99.90;;;;;;4337397;32;20086;-64
2021/08/17 02:04:36;;;;;;;28.42;11.80;;;19.90;99.90;;;;;;4350135;32;20112;-63
2021/08/17 02:07:03;;;;;;;24.40;11.45;;;19.90;99.90;;;;;;4349699;32;20086;-64
2021/08/17 02:09:30;;;;;;;25.10;12.40;;;19.90;99.90;;;;;;4350024;32;20082;-64
2021/08/17 02:11:56;;;;;;;22.60;11.77;;;20.10;99.90;;;;;;4349737;32;20082;-64
2021/08/17 02:14:22;;;;;;;28.25;12.63;;;20.20;99.90;;;;;;4337887;32;20082;-63
2021/08/17 02:16:48;;;;;;;25.37;11.75;;;20.30;99.90;;;;;;4337093;32;20075;-64
2021/08/17 02:19:16;;;;;;;23.80;12.50;;;20.40;99.90;;;;;;4349602;32;20073;-64
2021/08/17 02:23:41;;;;;;;22.15;11.93;;;20.40;99.90;;;;;;3834027;37;20066;-65
2021/08/17 02:26:07;;;;;;;22.50;11.75;;;20.80;99.90;;;;;;4378078;32;20499;-65
2021/08/17 02:28:33;;;;;;;23.30;12.45;;;20.80;99.90;;;;;;4365775;32;20073;-65
2021/08/17 02:31:00;;;;;;;27.50;11.90;;;21.00;99.90;;;;;;4365557;32;20076;-65
2021/08/17 02:33:26;;;;;;;24.37;12.13;;;21.00;99.90;;;;;;4365826;32;20085;-64
2021/08/17 02:35:52;;;;;;;24.90;11.60;;;21.10;99.90;;;;;;4390321;32;20065;-65
2021/08/17 02:38:18;;;;;;;29.50;13.60;;;21.10;99.90;;;;;;4378132;32;20093;-64
2021/08/17 02:40:44;;;;;;;27.75;12.55;;;21.20;97.50;;;;;;4390536;32;20085;-65
2021/08/17 02:43:11;;;;;;;25.95;12.90;;;21.20;97.30;;;;;;4377577;32;20534;-65
2021/08/17 02:45:37;;;;;;;26.37;12.65;;;21.20;96.60;;;;;;4390823;32;20149;-66
2021/08/17 02:48:04;;;;;;;25.65;13.15;;;21.30;95.90;;;;;;4377944;32;20070;-66
2021/08/17 02:50:30;;;;;;;24.45;12.57;;;21.30;96.20;;;;;;4365488;32;20085;-65
2021/08/17 02:52:57;;;;;;;28.10;11.77;;;21.30;96.40;;;;;;4377999;32;20088;-65
2021/08/17 02:55:23;;;;;;;21.75;12.80;;;21.40;95.80;;;;;;4365190;32;20607;-65
2021/08/17 02:57:51;;;;;;;25.00;12.82;;;21.40;96.10;;;;;;4390331;32;20545;-65
2021/08/17 03:00:18;;;;;;;27.23;12.73;;;21.60;95.10;;;;;;4389964;32;20142;-63
2021/08/17 03:02:45;;;;;;;26.65;12.55;;;21.60;94.30;;;;;;4378010;32;20177;-65
2021/08/17 03:05:11;;;;;;;21.15;11.02;;;21.80;93.40;;;;;;4350288;32;20150;-66
2021/08/17 03:07:52;;;;;;;24.00;12.15;;;21.90;93.00;;;;;;4362690;32;20061;-65
2021/08/17 03:10:19;;;;;;;27.95;13.70;;;22.00;94.10;;;;;;4351682;32;20070;-65
2021/08/17 03:12:46;;;;;;;26.65;12.73;;;22.00;94.30;;;;;;4362656;32;20134;-65
2021/08/17 03:15:12;;;;;;;27.85;12.60;;;22.10;95.70;;;;;;4363164;32;20464;-65
2021/08/17 03:17:39;;;;;;;27.85;12.77;;;22.10;95.60;;;;;;4376093;32;20168;-65
2021/08/17 03:20:10;;;;;;;26.62;13.13;;;22.00;94.60;;;;;;4350547;32;20470;-65
2021/08/17 03:22:37;;;;;;;25.62;12.85;;;22.20;98.20;;;;;;4362483;32;20073;-65
2021/08/17 03:25:09;;;;;;;24.48;12.63;;;22.20;99.90;;;;;;4350428;32;20588;-65
2021/08/17 03:27:35;;;;;;;26.90;12.55;;;22.20;99.90;;;;;;4350827;32;20140;-65
2021/08/17 03:30:14;;;;;;;20.60;11.12;;;22.60;99.90;;;;;;4350600;32;20526;-64
2021/08/17 03:32:41;;;;;;;27.48;11.80;;;22.60;99.90;;;;;;4388733;32;20074;-65
2021/08/17 03:35:08;;;;;;;22.75;11.23;;;22.60;99.90;;;;;;4352021;32;20063;-65
2021/08/17 03:37:37;;;;;;;23.15;10.52;;;22.60;99.90;;;;;;4365081;32;20471;-64
2021/08/17 03:40:16;;;;;;;22.05;11.23;;;22.60;99.90;;;;;;4352506;32;20082;-65
2021/08/17 03:42:43;;;;;;;21.98;10.85;;;22.70;99.90;;;;;;4341257;32;20058;-65
2021/08/17 03:45:12;;;;;;;24.15;11.55;;;22.70;99.90;;;;;;4339791;32;20078;-65
2021/08/17 03:47:38;;;;;;;25.92;11.60;;;22.80;99.90;;;;;;4352286;32;20104;-64
2021/08/17 03:50:07;;;;;;;20.40;11.55;;;23.00;99.90;;;;;;4352325;32;20169;-65
2021/08/17 03:52:33;;;;;;;22.65;10.73;;;23.00;99.90;;;;;;4364610;32;20094;-65
2021/08/17 03:55:00;;;;;;;22.30;10.05;;;23.00;99.90;;;;;;4364540;32;20530;-64
2021/08/17 03:57:26;;;;;;;20.50;10.13;;;23.10;99.90;;;;;;4339859;32;20082;-65
2021/08/17 03:59:52;;;;;;;23.70;11.10;;;23.20;99.90;;;;;;4364025;32;20243;-65
2021/08/17 04:02:18;;;;;;;22.13;10.60;;;23.30;99.90;;;;;;4377795;32;20129;-63
2021/08/17 04:04:45;;;;;;;25.25;11.40;;;23.30;98.40;;;;;;4352011;32;20063;-64
2021/08/17 04:07:11;;;;;;;24.50;11.10;;;23.50;98.20;;;;;;4364552;32;20066;-65
2021/08/17 04:09:37;;;;;;;25.95;11.12;;;23.70;96.10;;;;;;4327672;32;20082;-65
2021/08/17 04:12:04;;;;;;;23.87;11.07;;;23.80;95.10;;;;;;4339628;32;20175;-64
2021/08/17 04:14:30;;;;;;;25.27;10.70;;;23.70;94.70;;;;;;4339232;32;20480;-65
2021/08/17 04:16:57;;;;;;;24.75;10.57;;;23.80;94.10;;;;;;4339238;32;20066;-64
2021/08/17 04:19:26;;;;;;;22.35;11.02;;;23.80;93.00;;;;;;4376347;32;20531;-65
2021/08/17 04:21:53;;;;;;;21.00;11.32;;;23.90;92.90;;;;;;4346158;33;20515;-65
2021/08/17 04:24:19;;;;;;;23.17;11.38;;;23.90;92.60;;;;;;4359011;32;20156;-65
2021/08/17 04:26:46;;;;;;;23.05;11.10;;;23.70;92.00;;;;;;4358808;32;20074;-65
2021/08/17 04:29:12;;;;;;;23.05;11.60;;;23.70;90.70;;;;;;4346216;33;20483;-64
2021/08/17 04:31:38;;;;;;;23.58;11.35;;;23.70;91.50;;;;;;4334523;33;20075;-65
2021/08/17 04:34:04;;;;;;;23.73;11.18;;;23.90;90.60;;;;;;4333831;33;20155;-65
2021/08/17 04:36:30;;;;;;;23.80;11.25;;;24.00;85.50;;;;;;4346728;33;20569;-64
2021/08/17 04:38:56;;;;;;;22.90;10.55;;;24.00;84.70;;;;;;4346628;33;20090;-64
2021/08/17 04:41:23;;;;;;;23.42;10.82;;;24.00;84.90;;;;;;4347365;32;20166;-65
2021/08/17 04:43:49;;;;;;;18.70;10.07;;;24.20;80.40;;;;;;4334012;33;20078;-65
2021/08/17 04:48:50;;;;;;;20.75;10.63;;;24.50;78.00;;;;;;3833742;37;20070;-65
2021/08/17 04:51:18;;;;;;;19.80;10.80;;;24.60;75.00;;;;;;4378008;32;20074;-65
2021/08/17 04:53:45;;;;;;;20.02;10.35;;;24.60;74.80;;;;;;4390193;32;20145;-65
2021/08/17 04:56:11;;;;;;;18.27;9.80;;;24.50;71.00;;;;;;4365914;32;20528;-65
2021/08/17 04:58:37;;;;;;;21.87;11.30;;;24.40;70.70;;;;;;4353535;32;20085;-65
2021/08/17 05:01:03;;;;;;;23.02;11.27;;;24.70;69.00;;;;;;4389189;32;20097;-65
2021/08/17 05:03:30;;;;;;;20.70;10.45;;;25.00;66.20;;;;;;4375373;32;20142;-65
2021/08/17 05:05:56;;;;;;;21.33;9.93;;;25.70;60.80;;;;;;4362435;32;20496;-65
2021/08/17 05:08:22;;;;;;;23.02;11.12;;;25.90;58.20;;;;;;4375057;32;20487;-63
2021/08/17 05:10:49;;;;;;;26.23;12.43;;;25.60;58.20;;;;;;4375202;32;20477;-65
2021/08/17 05:13:15;;;;;;;26.00;12.30;;;25.60;58.60;;;;;;4363390;32;20085;-65
2021/08/17 05:15:41;;;;;;;24.15;12.20;;;25.60;57.60;;;;;;4363033;32;20245;-66
2021/08/17 05:18:07;;;;;;;21.08;11.85;;;26.10;56.50;;;;;;4363173;32;20084;-64
2021/08/17 05:20:34;;;;;;;23.00;13.02;;;27.70;49.60;;;;;;4362926;32;20078;-65
2021/08/17 05:23:00;;;;;;;34.10;13.43;;;26.50;52.80;;;;;;4375186;32;20237;-67
2021/08/17 05:25:26;;;;;;;28.75;14.43;;;25.90;56.90;;;;;;4375381;32;20098;-66
2021/08/17 05:27:53;;;;;;;30.92;15.65;;;26.50;54.90;;;;;;4374843;32;20581;-65
2021/08/17 05:30:19;;;;;;;34.53;16.25;;;27.30;50.30;;;;;;4351034;32;20488;-65
2021/08/17 05:32:46;;;;;;;25.30;14.05;;;28.40;45.60;;;;;;4338228;32;20488;-67
2021/08/17 05:35:13;;;;;;;34.55;14.77;;;28.90;43.40;;;;;;4362729;32;20600;-66
2021/08/17 05:37:39;;;;;;;30.95;15.35;;;28.70;42.30;;;;;;4338067;32;20081;-66
2021/08/17 05:40:06;;;;;;;30.00;14.30;;;27.20;45.20;;;;;;4375106;32;20076;-67
2021/08/17 05:42:33;;;;;;;30.58;16.20;;;27.10;47.30;;;;;;4362745;32;20070;-67
2021/08/17 05:44:59;;;;;;;25.35;12.70;;;26.90;47.00;;;;;;4337628;32;20510;-68
2021/08/17 05:47:25;;;;;;;28.60;13.80;;;26.90;46.00;;;;;;4374300;32;20157;-67
2021/08/17 05:49:52;;;;;;;23.65;12.95;;;28.20;40.10;;;;;;4374748;32;20081;-68
2021/08/17 05:52:18;;;;;;;26.42;14.07;;;29.10;36.70;;;;;;4374445;32;20088;-68
2021/08/17 05:54:44;;;;;;;31.02;14.40;;;29.10;38.20;;;;;;4362584;32;20496;-68
2021/08/17 05:57:10;;;;;;;25.85;13.15;;;29.40;38.40;;;;;;4362048;32;20133;-68
2021/08/17 05:59:36;;;;;;;27.23;13.40;;;29.40;36.30;;;;;;4367092;32;20512;-67
2021/08/17 06:02:04;;;;;;;27.13;13.82;;;29.90;33.80;;;;;;4379509;32;20069;-66
2021/08/17 06:04:30;;;;;;;28.02;13.50;;;29.30;33.80;;;;;;4341020;32;20073;-70
2021/08/17 06:06:56;;;;;;;26.15;13.82;;;29.30;34.00;;;;;;4328149;32;20126;-68
2021/08/17 06:09:23;;;;;;;26.27;14.20;;;30.10;33.20;;;;;;4352104;32;20089;-68
2021/08/17 06:11:53;;;;;;;24.60;12.75;;;30.90;30.40;;;;;;4378129;32;20182;-66
2021/08/17 06:14:19;;;;;;;26.98;13.50;;;29.70;33.10;;;;;;4339940;32;20513;-67
2021/08/17 06:16:45;;;;;;;27.10;14.27;;;28.70;34.50;;;;;;4378168;32;20162;-66
2021/08/17 06:19:11;;;;;;;32.22;16.15;;;28.50;37.40;;;;;;4339437;32;20074;-67
2021/08/17 06:21:38;;;;;;;31.85;16.25;;;29.30;35.00;;;;;;4327512;32;20093;-67
2021/08/17 06:24:05;;;;;;;27.37;14.10;;;28.70;35.70;;;;;;4339772;32;20078;-64
2021/08/17 06:26:32;;;;;;;29.45;14.18;;;28.00;38.50;;;;;;4352094;32;20456;-65
2021/08/17 06:28:58;;;;;;;31.92;16.25;;;28.20;38.80;;;;;;4339557;32;20078;-66
2021/08/17 06:31:24;;;;;;;28.45;15.52;;;28.50;37.30;;;;;;4364447;32;20081;-65
2021/08/17 06:33:55;;;;;;;33.70;15.63;;;28.70;35.70;;;;;;4327459;32;20081;-67
2021/08/17 06:36:22;;;;;;;29.95;14.93;;;28.70;35.20;;;;;;4327829;32;20087;-65
2021/08/17 06:38:48;;;;;;;29.52;15.82;;;28.80;34.70;;;;;;4351657;32;20461;-67
2021/08/17 06:41:15;;;;;;;28.23;15.63;;;29.20;33.70;;;;;;4339669;32;20070;-66
2021/08/17 06:43:41;;;;;;;29.83;14.20;;;29.50;33.20;;;;;;4327247;32;20082;-66
2021/08/17 06:46:08;;;;;;;28.62;14.07;;;30.00;32.80;;;;;;4339097;32;20089;-66
2021/08/17 06:48:34;;;;;;;26.27;12.40;;;29.40;33.90;;;;;;4338771;32;20081;-64
2021/08/17 06:51:00;;;;;;;25.70;14.43;;;29.50;34.00;;;;;;4363734;32;20086;-68
2021/08/17 06:53:27;;;;;;;29.15;15.93;;;29.20;32.80;;;;;;4363905;32;20070;-68
2021/08/17 06:55:53;;;;;;;28.75;14.32;;;28.90;33.10;;;;;;4327188;32;20172;-69
2021/08/17 06:58:19;;;;;;;32.80;14.23;;;29.00;33.40;;;;;;4364117;32;20070;-67
2021/08/17 07:00:47;;;;;;;35.25;16.00;;;29.10;33.80;;;;;;4338851;32;20109;-69
2021/08/17 07:03:13;;;;;;;35.55;15.10;;;29.10;35.50;;;;;;4348378;32;20111;-65
2021/08/17 07:05:42;;;;;;;33.20;15.50;;;29.10;35.30;;;;;;4329226;32;20501;-68
2021/08/17 07:08:09;;;;;;;37.97;17.00;;;29.00;35.70;;;;;;4323180;32;20109;-64
2021/08/17 07:10:36;;;;;;;29.92;14.98;;;29.10;35.80;;;;;;4327917;32;20069;-69
2021/08/17 07:13:02;;;;;;;32.95;16.10;;;29.00;36.50;;;;;;4349326;32;20124;-67
2021/08/17 07:15:29;;;;;;;28.90;14.40;;;28.90;36.50;;;;;;4350897;32;20070;-69
2021/08/17 07:17:55;;;;;;;25.75;11.35;;;28.70;37.20;;;;;;4334481;32;20133;-67
2021/08/17 07:20:21;;;;;;;23.02;11.57;;;29.10;40.90;;;;;;4352740;32;20065;-68
2021/08/17 07:22:47;;;;;;;20.98;10.50;;;29.50;39.80;;;;;;4345129;32;20078;-66
2021/08/17 07:25:14;;;;;;;24.50;10.95;;;29.50;39.30;;;;;;4358752;32;20200;-69
2021/08/17 07:27:40;;;;;;;25.40;9.63;;;29.90;38.10;;;;;;4356690;32;20180;-70
2021/08/17 07:30:11;;;;;;;23.62;11.55;;;30.70;36.60;;;;;;4350382;32;20073;-66
2021/08/17 07:32:39;;;;;;;23.12;12.55;;;30.40;34.50;;;;;;4334719;32;20092;-69
2021/08/17 07:35:10;;;;;;;24.35;12.35;;;30.60;34.30;;;;;;4324265;32;20067;-68
2021/08/17 07:37:41;;;;;;;21.50;11.45;;;30.50;32.00;;;;;;4336901;32;20069;-68
2021/08/17 07:40:08;;;;;;;21.62;11.38;;;30.80;31.90;;;;;;4347570;32;20076;-70
2021/08/17 07:42:34;;;;;;;22.08;11.38;;;31.10;31.50;;;;;;4353577;32;20081;-70
2021/08/17 07:45:00;;;;;;;24.77;11.90;;;31.00;32.50;;;;;;4336983;32;20065;-72
2021/08/17 07:47:27;;;;;;;22.33;12.93;;;31.30;32.20;;;;;;4335988;32;20092;-72
2021/08/17 07:49:53;;;;;;;22.95;10.00;;;30.80;32.10;;;;;;4332699;32;20142;-69
2021/08/17 07:52:19;;;;;;;20.58;10.77;;;30.70;32.60;;;;;;4333288;32;20079;-69
2021/08/17 07:54:45;;;;;;;22.90;11.48;;;30.40;32.70;;;;;;4333483;32;20075;-71
2021/08/17 07:57:12;;;;;;;23.05;12.40;;;30.60;32.40;;;;;;4367421;32;20077;-70
2021/08/17 07:59:38;;;;;;;20.88;11.05;;;31.00;31.50;;;;;;4334682;32;20160;-71
2021/08/17 08:02:04;;;;;;;19.45;10.52;;;31.10;30.50;;;;;;4334533;32;20061;-71
2021/08/17 08:04:31;;;;;;;22.62;10.75;;;31.00;29.60;;;;;;4335240;32;20194;-69
2021/08/17 08:06:57;;;;;;;18.87;10.23;;;31.00;27.70;;;;;;4348279;32;20128;-66
2021/08/17 08:09:23;;;;;;;20.55;10.55;;;31.00;27.40;;;;;;4330660;32;20166;-71
2021/08/17 08:11:49;;;;;;;20.37;10.80;;;30.90;26.70;;;;;;4355950;32;20227;-70
2021/08/17 08:14:16;;;;;;;20.12;10.50;;;31.30;26.20;;;;;;4345776;32;20094;-71
2021/08/17 08:16:42;;;;;;;22.15;11.10;;;31.50;26.00;;;;;;4334095;32;20078;-65
2021/08/17 08:19:08;;;;;;;19.12;11.00;;;31.40;26.60;;;;;;4345915;32;20093;-64
2021/08/17 08:21:35;;;;;;;19.65;9.80;;;31.80;26.90;;;;;;4331471;32;20507;-67
2021/08/17 08:24:01;;;;;;;19.37;10.15;;;31.90;25.00;;;;;;4326300;32;20502;-66
2021/08/17 08:26:27;;;;;;;21.60;9.95;;;32.10;25.00;;;;;;4358507;32;20066;-71
2021/08/17 08:28:54;;;;;;;18.10;9.70;;;31.80;23.10;;;;;;4343572;32;20055;-71
2021/08/17 08:31:23;;;;;;;18.02;9.13;;;32.30;22.30;;;;;;4327724;32;20109;-72
2021/08/17 08:33:49;;;;;;;20.05;9.45;;;32.20;23.20;;;;;;4366216;32;20071;-70
2021/08/17 08:36:16;;;;;;;19.70;8.65;;;32.10;23.10;;;;;;4334663;32;20070;-72
2021/08/17 08:38:42;;;;;;;15.25;8.68;;;32.00;20.60;;;;;;4344668;32;20512;-71
2021/08/17 08:41:08;;;;;;;19.33;9.48;;;31.80;22.80;;;;;;4334616;32;20164;-71
2021/08/17 08:43:34;;;;;;;14.02;7.95;;;31.90;21.60;;;;;;4332151;32;20438;-70
2021/08/17 08:46:00;;;;;;;17.33;8.05;;;32.10;18.40;;;;;;4361720;32;20101;-70
2021/08/17 08:48:27;;;;;;;15.27;7.00;;;32.00;17.50;;;;;;4315789;33;20089;-69
2021/08/17 08:50:53;;;;;;;17.90;8.82;;;31.60;17.80;;;;;;4337096;33;20220;-71
2021/08/17 08:53:20;;;;;;;14.98;7.95;;;31.70;18.00;;;;;;4339838;33;20082;-70
2021/08/17 08:55:47;;;;;;;15.05;8.88;;;31.60;18.20;;;;;;4324886;33;20647;-70
2021/08/17 08:58:13;;;;;;;16.77;8.48;;;31.60;18.20;;;;;;4341478;32;20125;-71
2021/08/17 09:00:40;;;;;;;16.23;8.70;;;31.70;18.50;;;;;;4324706;33;20071;-70
2021/08/17 09:03:07;;;;;;;16.55;8.70;;;31.90;18.50;;;;;;4342408;32;20078;-70
2021/08/17 09:05:49;;;;;;;14.87;8.60;;;31.80;19.10;;;;;;4330338;33;20236;-70
2021/08/17 09:08:15;;;;;;;18.00;8.57;;;31.90;18.70;;;;;;4337700;32;20094;-70
2021/08/17 09:10:41;;;;;;;17.70;9.38;;;31.90;19.00;;;;;;4322075;33;20089;-71
2021/08/17 09:13:08;;;;;;;15.75;9.13;;;32.00;18.90;;;;;;4330314;33;20106;-71
2021/08/17 09:15:35;;;;;;;18.85;9.18;;;32.40;18.20;;;;;;4343901;32;20078;-72
2021/08/17 09:18:09;;;;;;;17.52;8.73;;;32.20;16.70;;;;;;4341269;33;20078;-70
2021/08/17 09:20:40;;;;;;;19.25;9.55;;;32.20;18.20;;;;;;4329487;33;20594;-70
2021/08/17 09:23:28;;;;;;;21.15;10.45;;;32.10;19.50;;;;;;4325662;33;20489;-68
2021/08/17 09:25:58;;;;;;;21.73;10.15;;;31.80;19.20;;;;;;4340259;33;20077;-67
2021/08/17 09:28:28;;;;;;;20.42;10.25;;;31.70;18.70;;;;;;4329522;33;20074;-69
2021/08/17 09:30:54;;;;;;;18.33;9.55;;;31.70;19.30;;;;;;4351919;32;20123;-69
2021/08/17 09:33:21;;;;;;;19.98;9.82;;;31.70;19.90;;;;;;4345621;32;20157;-70
2021/08/17 09:35:54;;;;;;;17.27;8.65;;;31.80;20.10;;;;;;4339052;33;20095;-68
2021/08/17 09:38:21;;;;;;;18.05;9.82;;;31.90;19.50;;;;;;4350012;32;20158;-71
2021/08/17 09:40:47;;;;;;;17.58;9.32;;;32.00;18.60;;;;;;4342843;33;20127;-68
2021/08/17 09:43:24;;;;;;;19.20;10.05;;;32.10;18.00;;;;;;4339209;33;20109;-67
2021/08/17 09:45:50;;;;;;;20.00;10.30;;;31.90;17.10;;;;;;4327303;33;20153;-73
2021/08/17 09:48:28;;;;;;;17.50;9.95;;;32.30;17.30;;;;;;4334517;32;20456;-76
2021/08/17 09:50:54;;;;;;;20.37;10.65;;;32.60;17.60;;;;;;4335221;32;20192;-78
2021/08/17 09:53:23;;;;;;;20.10;10.23;;;32.50;17.60;;;;;;4345336;32;20082;-75
2021/08/17 09:55:51;;;;;;;20.88;11.68;;;32.60;18.50;;;;;;4334591;32;20164;-69
2021/08/17 09:58:31;;;;;;;18.92;9.77;;;32.60;17.60;;;;;;4331059;32;20110;-75
2021/08/17 10:01:01;;;;;;;19.75;9.75;;;32.70;19.00;;;;;;4346924;32;20058;-68
2021/08/17 10:03:28;;;;;;;18.08;9.75;;;32.10;18.10;;;;;;4334211;33;20098;-77
2021/08/17 10:05:56;;;;;;;19.92;9.63;;;32.30;18.20;;;;;;4334381;33;20099;-77
2021/08/17 10:08:25;;;;;;;18.02;9.93;;;32.20;16.70;;;;;;4336090;32;20092;-78
2021/08/17 10:10:53;;;;;;;15.55;9.40;;;32.40;16.30;;;;;;4336922;32;20534;-78
2021/08/17 10:13:22;;;;;;;21.27;10.32;;;32.60;16.60;;;;;;4326748;32;20139;-79
2021/08/17 10:15:50;;;;;;;21.37;10.20;;;32.80;17.10;;;;;;4358938;32;20094;-78
2021/08/17 10:18:27;;;;;;;21.15;10.45;;;32.80;17.40;;;;;;4337078;32;20080;-78
2021/08/17 10:20:55;;;;;;;18.17;10.00;;;32.70;17.60;;;;;;4338026;32;20082;-77
2021/08/17 10:23:22;;;;;;;19.83;10.65;;;33.10;18.30;;;;;;4325208;32;20171;-75
2021/08/17 10:25:57;;;;;;;18.75;9.15;;;32.70;18.20;;;;;;4337890;32;20148;-77
2021/08/17 10:28:41;;;;;;;17.27;9.73;;;32.90;18.60;;;;;;4337321;32;20157;-80
2021/08/17 10:31:13;;;;;;;19.20;8.88;;;33.00;19.90;;;;;;4336656;32;20158;-81
2021/08/17 10:33:54;;;;;;;16.37;9.07;;;32.60;20.90;;;;;;4358403;32;20493;-78
2021/08/17 10:36:41;;;;;;;14.50;9.25;;;32.80;21.30;;;;;;4334052;33;20499;-68
2021/08/17 10:39:17;;;;;;;17.27;8.82;;;33.40;21.40;;;;;;4331442;32;20456;-69
2021/08/17 10:41:45;;;;;;;15.27;8.75;;;33.20;21.30;;;;;;4349105;32;20094;-70
2021/08/17 10:44:24;;;;;;;14.23;8.50;;;33.10;22.30;;;;;;4297762;33;20082;-69
2021/08/17 10:47:05;;;;;;;17.60;9.98;;;32.40;23.40;;;;;;4342441;32;20059;-69
2021/08/17 10:49:48;;;;;;;14.98;8.20;;;32.50;22.80;;;;;;4339861;32;20070;-79
2021/08/17 10:52:38;;;;;;;18.33;9.57;;;33.30;21.90;;;;;;4338784;32;20163;-75
2021/08/17 10:55:43;;;;;;;17.80;9.05;;;33.40;22.00;;;;;;4338270;32;20090;-75
2021/08/17 10:58:11;;;;;;;19.52;9.18;;;33.40;22.00;;;;;;4279431;33;20598;-74
2021/08/17 11:00:47;;;;;;;22.08;9.57;;;33.40;21.80;;;;;;4317582;33;20095;-77
2021/08/17 11:03:14;;;;;;;16.67;9.93;;;33.80;21.60;;;;;;4325912;32;20074;-76
2021/08/17 11:05:53;;;;;;;19.48;10.02;;;33.20;22.70;;;;;;4351507;32;20080;-81
2021/08/17 11:08:32;;;;;;;15.65;8.70;;;32.50;23.90;;;;;;4351429;32;20085;-75
2021/08/17 11:11:04;;;;;;;18.62;9.60;;;32.70;24.20;;;;;;4376847;32;20242;-68
2021/08/17 11:13:30;;;;;;;21.42;10.07;;;32.80;23.90;;;;;;4335448;32;20151;-68
2021/08/17 11:16:11;;;;;;;18.10;9.50;;;32.90;24.20;;;;;;4331772;32;20182;-71
2021/08/17 11:18:56;;;;;;;16.98;9.73;;;32.90;24.10;;;;;;4330151;32;20495;-69
2021/08/17 11:21:48;;;;;;;19.40;9.48;;;32.90;24.20;;;;;;4339155;32;20110;-72
2021/08/17 11:24:47;;;;;;;18.17;9.60;;;32.40;25.00;;;;;;4340544;32;20560;-78
2021/08/17 11:27:19;;;;;;;17.95;9.70;;;32.40;25.40;;;;;;4337656;32;20105;-71
2021/08/17 11:30:00;;;;;;;18.23;9.80;;;32.50;25.30;;;;;;4325177;32;20192;-75
2021/08/17 11:32:38;;;;;;;15.48;8.93;;;32.80;25.20;;;;;;4321720;32;20090;-75
2021/08/17 11:35:12;;;;;;;16.80;8.85;;;32.40;26.10;;;;;;4334652;32;20132;-70
2021/08/17 11:37:44;;;;;;;16.20;9.10;;;32.20;26.10;;;;;;4354196;32;20106;-66
2021/08/17 11:40:12;;;;;;;19.35;9.80;;;32.10;26.00;;;;;;4326052;32;20117;-74
2021/08/17 11:42:41;;;;;;;17.45;9.77;;;32.00;26.10;;;;;;4328864;32;20175;-74
2021/08/17 11:45:10;;;;;;;18.55;9.40;;;32.10;26.00;;;;;;4307980;32;20098;-71
2021/08/17 11:47:38;;;;;;;19.35;10.02;;;32.10;26.10;;;;;;4321170;32;20086;-70
2021/08/17 11:50:09;;;;;;;21.37;10.57;;;32.00;26.00;;;;;;4350139;32;20186;-71
2021/08/17 11:52:46;;;;;;;19.65;9.48;;;32.30;25.90;;;;;;4319962;32;20086;-81
2021/08/17 11:55:21;;;;;;;17.37;9.88;;;32.40;25.80;;;;;;4331497;32;20093;-72
2021/08/17 11:57:48;;;;;;;16.25;9.48;;;33.30;24.70;;;;;;4332692;32;20198;-73
2021/08/17 12:00:28;;;;;;;15.50;9.15;;;33.60;23.80;;;;;;4341473;32;20066;-72
2021/08/17 12:03:11;;;;;;;18.87;9.98;;;32.70;25.00;;;;;;4331654;32;20094;-70
2021/08/17 12:05:39;;;;;;;16.52;9.48;;;32.60;25.20;;;;;;4335077;32;20566;-71
2021/08/17 12:08:09;;;;;;;20.52;10.43;;;32.50;25.20;;;;;;4332170;32;20101;-72
2021/08/17 12:10:36;;;;;;;16.83;9.60;;;32.60;25.10;;;;;;4338186;32;20077;-73
2021/08/17 12:13:03;;;;;;;19.27;10.25;;;32.60;24.80;;;;;;4327149;32;20082;-72
2021/08/17 12:15:46;;;;;;;19.35;9.23;;;32.90;24.60;;;;;;4345555;32;20086;-71
2021/08/17 12:18:31;;;;;;;19.12;10.25;;;32.60;24.70;;;;;;4352287;32;20077;-74
2021/08/17 12:21:11;;;;;;;17.12;9.45;;;32.60;24.60;;;;;;4344406;32;20607;-71
2021/08/17 12:23:46;;;;;;;19.12;9.13;;;32.70;24.90;;;;;;4333418;32;20400;-75
2021/08/17 12:26:33;;;;;;;17.27;10.60;;;32.60;24.20;;;;;;4344102;32;20087;-75
2021/08/17 12:29:11;;;;;;;15.30;9.07;;;32.50;24.90;;;;;;4344985;32;20073;-73
2021/08/17 12:31:38;;;;;;;19.75;10.13;;;32.80;24.70;;;;;;4346806;32;20098;-74
2021/08/17 12:34:08;;;;;;;20.10;10.25;;;32.40;24.50;;;;;;4326420;32;20097;-72
2021/08/17 12:36:40;;;;;;;20.02;10.35;;;32.60;24.30;;;;;;4331153;32;20183;-74
2021/08/17 12:39:09;;;;;;;18.83;10.48;;;32.40;24.50;;;;;;4349168;32;20160;-80
2021/08/17 12:41:39;;;;;;;19.23;10.35;;;32.20;24.30;;;;;;4329690;32;20202;-78
2021/08/17 12:44:29;;;;;;;17.30;10.23;;;32.30;25.40;;;;;;4343302;32;20171;-74